Terminal Aerodrome Forecast
Issued by NWS

Home | Current Version | Previous Version | Graphics & Text | Print | Product List | Glossary On
Versions: 1 2 3 4 5 6 7 8 9 10 11 12 13
000
FTUS45 KGGW 271740
TAFGDV
TAF
KGDV 271740Z 2718/2818 03006KT 1/2SM SN OVC005
     FM272200 05011KT 2SM -RASN OVC009
     FM280100 01013KT P6SM VCSH OVC020
     FM281200 03009KT P6SM SCT030 OVC060
      AMD LTD TO CLD VIS AND WIND=

USA.gov is the U.S. government's official web portal to all federal, state and local government web resources and services.